Time;durP1;ratioP1;P1;durP2;ratioP2;P2;SDS_P1;SDS_P2;PMS_P1;PMS_P2;Temp;Humidity;BMP_temperature;BMP_pressure;BME280_temperature;BME280_humidity;BME280_pressure;Samples;Min_cycle;Max_cycle;Signal;HPM_P1;HPM_P2
2023/03/07 00:02:07;;;;;;;;;;;;;;;29.82;21.55;100174.25;5097574;28;1149;-25
2023/03/07 00:04:32;;;;;;;;;;;;;;;28.46;23.22;100170.88;5097344;28;1120;-25
2023/03/07 00:06:58;;;;;;;;;;;;;;;28.69;23.25;100178.59;5097186;28;1910;-26
2023/03/07 00:09:23;;;;;;;;;;;;;;;28.66;23.44;100164.66;5097162;28;1113;-25
2023/03/07 00:11:49;;;;;;;;;;;;;;;28.80;23.07;100168.19;5097354;28;1214;-26
2023/03/07 00:14:15;;;;;;;;;;;;;;;29.23;22.63;100169.59;5096838;28;1058;-27
2023/03/07 00:16:40;;;;;;;;;;;;;;;29.63;21.86;100168.69;5097360;28;1414;-27
2023/03/07 00:19:06;;;;;;;;;;;;;;;29.57;21.84;100159.53;5095620;28;1281;-26
2023/03/07 00:21:32;;;;;;;;;;;;;;;28.40;22.99;100160.88;5097174;28;1119;-25
2023/03/07 00:23:58;;;;;;;;;;;;;;;29.26;22.44;100155.63;5096703;28;1050;-25
2023/03/07 00:26:23;;;;;;;;;;;;;;;29.70;21.90;100155.97;5097351;28;1180;-31
2023/03/07 00:28:49;;;;;;;;;;;;;;;29.90;21.51;100152.31;5077856;28;1977;-26
2023/03/07 00:31:15;;;;;;;;;;;;;;;30.06;20.97;100150.16;5096263;28;1113;-30
2023/03/07 00:33:41;;;;;;;;;;;;;;;29.95;20.86;100140.81;5096575;28;1101;-27
2023/03/07 00:36:07;;;;;;;;;;;;;;;28.95;21.29;100136.31;5096744;28;876;-25
2023/03/07 00:38:33;;;;;;;;;;;;;;;27.46;23.24;100129.78;5096700;28;1074;-25
2023/03/07 00:41:01;;;;;;;;;;;;;;;29.34;21.57;100130.22;5096918;28;1030;-28
2023/03/07 00:43:27;;;;;;;;;;;;;;;29.86;20.84;100128.56;5096099;28;1046;-29
2023/03/07 00:45:53;;;;;;;;;;;;;;;29.60;21.00;100133.88;5078692;28;1136;-29
2023/03/07 00:48:19;;;;;;;;;;;;;;;28.33;22.59;100118.41;5096488;28;1973;-29
2023/03/07 00:50:44;;;;;;;;;;;;;;;28.92;22.45;100114.25;5078663;28;1126;-27
2023/03/07 00:53:10;;;;;;;;;;;;;;;28.98;22.01;100115.31;5077870;28;1509;-27
2023/03/07 00:55:36;;;;;;;;;;;;;;;29.13;21.88;100102.34;5096292;28;1229;-29
2023/03/07 00:58:02;;;;;;;;;;;;;;;29.52;21.34;100109.72;5078626;28;1157;-25
2023/03/07 01:00:27;;;;;;;;;;;;;;;29.57;21.35;100110.75;5096483;28;1119;-30
2023/03/07 01:02:56;;;;;;;;;;;;;;;29.79;21.05;100099.63;5096209;28;1082;-27
2023/03/07 01:05:22;;;;;;;;;;;;;;;28.63;22.06;100097.41;5078249;28;2078;-27
2023/03/07 01:07:47;;;;;;;;;;;;;;;28.75;22.67;100101.16;5078139;28;1910;-26
2023/03/07 01:10:13;;;;;;;;;;;;;;;29.60;21.39;100095.94;5096575;28;1090;-26
2023/03/07 01:12:39;;;;;;;;;;;;;;;29.70;21.09;100096.31;5095807;28;1047;-26
2023/03/07 01:15:05;;;;;;;;;;;;;;;29.82;21.16;100095.63;5078539;28;1486;-27
2023/03/07 01:17:32;;;;;;;;;;;;;;;29.88;21.04;100097.47;5078432;28;1281;-27
2023/03/07 01:19:57;;;;;;;;;;;;;;;28.62;22.01;100091.16;5095974;28;1046;-28
2023/03/07 01:22:23;;;;;;;;;;;;;;;28.57;22.83;100093.66;5095908;28;1029;-28
2023/03/07 01:24:49;;;;;;;;;;;;;;;29.10;22.01;100089.22;5078388;28;1758;-28
2023/03/07 01:27:14;;;;;;;;;;;;;;;29.35;21.63;100091.22;5077814;28;1894;-26
2023/03/07 01:29:40;;;;;;;;;;;;;;;29.82;21.10;100082.06;5096662;28;1058;-29
2023/03/07 01:32:06;;;;;;;;;;;;;;;29.02;21.85;100079.47;5095953;28;1063;-28
2023/03/07 01:34:31;;;;;;;;;;;;;;;28.28;23.10;100093.03;5095905;28;1085;-28
2023/03/07 01:36:57;;;;;;;;;;;;;;;29.25;21.87;100088.13;5096278;28;1034;-26
2023/03/07 01:39:23;;;;;;;;;;;;;;;29.47;21.58;100080.56;5096253;28;1217;-26
2023/03/07 01:41:55;;;;;;;;;;;;;;;29.81;21.22;100073.09;5078314;28;1165;-30
2023/03/07 01:44:25;;;;;;;;;;;;;;;28.63;22.66;100071.16;5077733;28;1228;-26
2023/03/07 01:46:54;;;;;;;;;;;;;;;28.37;23.08;100067.47;5077363;28;2132;-26
2023/03/07 01:49:24;;;;;;;;;;;;;;;29.23;22.21;100065.88;5078057;28;1127;-28
2023/03/07 01:51:59;;;;;;;;;;;;;;;29.56;21.70;100063.00;5078403;28;1293;-29
2023/03/07 01:54:25;;;;;;;;;;;;;;;29.94;21.49;100057.81;5077726;28;1134;-26
2023/03/07 01:56:51;;;;;;;;;;;;;;;28.85;22.20;100055.53;5077072;28;1410;-27
2023/03/07 01:59:18;;;;;;;;;;;;;;;28.54;22.89;100054.34;5078204;28;1113;-26
2023/03/07 02:01:44;;;;;;;;;;;;;;;29.44;21.83;100059.31;5077640;28;1078;-25
2023/03/07 02:04:11;;;;;;;;;;;;;;;29.57;21.80;100053.84;5095774;28;1150;-26
2023/03/07 02:06:37;;;;;;;;;;;;;;;29.92;21.48;100055.31;5078041;28;1147;-26
2023/03/07 02:09:04;;;;;;;;;;;;;;;28.84;22.35;100061.97;5077463;28;1918;-26
2023/03/07 02:11:30;;;;;;;;;;;;;;;28.40;22.82;100050.81;5097280;28;1271;-26
2023/03/07 02:13:56;;;;;;;;;;;;;;;29.30;22.09;100062.09;5081201;28;1113;-27
2023/03/07 02:16:21;;;;;;;;;;;;;;;29.41;22.08;100062.47;5080887;28;1314;-28
2023/03/07 02:18:48;;;;;;;;;;;;;;;29.70;21.60;100041.28;5081054;28;1130;-30
2023/03/07 02:21:17;;;;;;;;;;;;;;;29.54;21.39;100056.97;5080460;28;1221;-27
2023/03/07 02:23:46;;;;;;;;;;;;;;;28.63;22.65;100059.53;5064619;28;1313;-28
2023/03/07 02:26:42;;;;;;;;;;;;;;;29.36;21.91;100060.41;5081108;28;988;-27
2023/03/07 02:29:08;;;;;;;;;;;;;;;29.73;21.63;100042.72;5048033;28;1997;-26
2023/03/07 02:31:33;;;;;;;;;;;;;;;29.81;21.32;100048.69;5081400;28;1349;-29
2023/03/07 02:33:59;;;;;;;;;;;;;;;29.94;21.25;100055.09;5079940;28;1241;-26
2023/03/07 02:36:27;;;;;;;;;;;;;;;28.55;22.63;100052.44;5081100;28;1204;-26
2023/03/07 02:39:05;;;;;;;;;;;;;;;28.68;22.92;100059.72;5080635;28;1593;-26
2023/03/07 02:41:31;;;;;;;;;;;;;;;28.76;22.80;100050.56;5080280;28;1190;-25
2023/03/07 02:44:00;;;;;;;;;;;;;;;29.03;22.49;100056.75;5078429;28;1282;-27
2023/03/07 02:46:26;;;;;;;;;;;;;;;29.60;21.94;100057.16;5073238;28;1238;-29
2023/03/07 02:48:51;;;;;;;;;;;;;;;29.44;22.05;100049.31;5080684;28;1966;-32
2023/03/07 02:51:17;;;;;;;;;;;;;;;28.41;23.39;100052.47;5080528;28;1161;-26
2023/03/07 02:53:45;;;;;;;;;;;;;;;29.11;22.67;100055.72;5080342;28;1346;-25
2023/03/07 02:56:11;;;;;;;;;;;;;;;29.15;22.58;100056.09;5077686;28;1170;-31
2023/03/07 02:58:37;;;;;;;;;;;;;;;29.49;22.01;100047.81;5080177;28;2302;-27
2023/03/07 03:01:02;;;;;;;;;;;;;;;29.64;21.50;100045.69;5085320;28;1093;-26
2023/03/07 03:03:28;;;;;;;;;;;;;;;28.58;22.63;100047.44;5079948;28;1135;-26
2023/03/07 03:05:54;;;;;;;;;;;;;;;29.12;22.52;100048.41;5098564;28;1086;-26
2023/03/07 03:08:19;;;;;;;;;;;;;;;29.21;22.50;100030.88;5098300;28;1902;-29
2023/03/07 03:10:45;;;;;;;;;;;;;;;29.55;21.86;100038.81;5079989;28;1298;-28
2023/03/07 03:13:11;;;;;;;;;;;;;;;29.91;21.44;100036.56;5080070;28;1330;-26
2023/03/07 03:15:39;;;;;;;;;;;;;;;28.70;22.58;100039.53;5080188;28;1430;-30
2023/03/07 03:18:05;;;;;;;;;;;;;;;29.00;22.86;100031.97;5097980;28;1245;-26
2023/03/07 03:20:30;;;;;;;;;;;;;;;29.55;22.12;100030.69;5098021;28;1010;-26
2023/03/07 03:22:56;;;;;;;;;;;;;;;29.76;21.88;100031.44;5097577;28;1027;-25
2023/03/07 03:25:23;;;;;;;;;;;;;;;29.91;21.57;100023.81;5079562;28;1122;-28
2023/03/07 03:27:50;;;;;;;;;;;;;;;29.32;22.12;100027.50;5079474;28;1902;-26
2023/03/07 03:30:16;;;;;;;;;;;;;;;28.46;23.31;100024.81;5079948;28;1225;-28
2023/03/07 03:32:42;;;;;;;;;;;;;;;28.91;22.93;100032.19;5079346;28;2132;-25
2023/03/07 03:35:10;;;;;;;;;;;;;;;28.92;22.98;100033.84;5079706;28;1335;-27
2023/03/07 03:37:36;;;;;;;;;;;;;;;29.15;22.62;100037.13;5079819;28;1126;-26
2023/03/07 03:40:08;;;;;;;;;;;;;;;29.47;22.18;100037.22;5079751;28;1194;-28
2023/03/07 03:42:36;;;;;;;;;;;;;;;29.62;21.89;100031.53;5067464;28;1330;-26
2023/03/07 03:45:02;;;;;;;;;;;;;;;29.42;21.67;100028.91;5066043;28;1357;-26
2023/03/07 03:47:27;;;;;;;;;;;;;;;28.45;23.20;100023.13;5075863;28;1918;-26
2023/03/07 03:49:53;;;;;;;;;;;;;;;29.36;22.11;100025.19;5076112;28;1174;-28
2023/03/07 03:52:22;;;;;;;;;;;;;;;29.38;22.17;100024.97;5076307;28;1178;-26
2023/03/07 03:54:48;;;;;;;;;;;;;;;29.43;22.27;100012.41;5075596;28;1124;-28
2023/03/07 03:57:16;;;;;;;;;;;;;;;29.70;21.55;100006.88;5068253;28;1323;-26
2023/03/07 03:59:42;;;;;;;;;;;;;;;29.80;20.88;100013.69;5070421;28;1244;-26
2023/03/07 04:02:08;;;;;;;;;;;;;;;28.69;21.20;100004.56;5075806;28;1507;-29
2023/03/07 04:04:34;;;;;;;;;;;;;;;27.26;23.49;100001.72;5077418;28;1146;-25
2023/03/07 04:07:00;;;;;;;;;;;;;;;29.30;20.96;99998.94;5076725;28;1893;-28
2023/03/07 04:09:25;;;;;;;;;;;;;;;29.49;20.57;99997.19;5075278;28;1150;-25
2023/03/07 04:11:51;;;;;;;;;;;;;;;29.65;20.25;99993.16;5076945;28;1054;-27
2023/03/07 04:14:17;;;;;;;;;;;;;;;29.81;20.05;99994.47;5075696;28;1240;-28
2023/03/07 04:16:42;;;;;;;;;;;;;;;29.75;20.17;99994.53;5077223;28;1061;-28
2023/03/07 04:19:11;;;;;;;;;;;;;;;28.49;21.41;100000.03;5075345;28;1298;-26
2023/03/07 04:21:37;;;;;;;;;;;;;;;27.16;22.84;99992.34;5075121;28;1208;-26
2023/03/07 04:24:03;;;;;;;;;;;;;;;29.80;20.46;99992.00;5075247;28;1098;-27
2023/03/07 04:26:31;;;;;;;;;;;;;;;28.28;21.49;100001.88;5075688;28;1225;-25
2023/03/07 04:28:57;;;;;;;;;;;;;;;27.99;21.89;99998.56;5075152;28;1922;-26
2023/03/07 04:31:31;;;;;;;;;;;;;;;28.63;21.32;100000.00;5076271;28;1128;-26
2023/03/07 04:33:59;;;;;;;;;;;;;;;29.05;20.90;99995.09;5074133;28;1341;-28
2023/03/07 04:36:25;;;;;;;;;;;;;;;29.16;20.74;100003.59;5076484;28;1122;-27
2023/03/07 04:38:51;;;;;;;;;;;;;;;29.50;20.44;100006.97;5075320;28;1138;-26
2023/03/07 04:41:18;;;;;;;;;;;;;;;29.30;20.90;100013.31;5075380;28;1213;-27
2023/03/07 04:43:45;;;;;;;;;;;;;;;29.09;21.03;100011.75;5075282;28;1157;-25
2023/03/07 04:46:11;;;;;;;;;;;;;;;27.16;23.43;100009.34;5074742;28;1189;-27
2023/03/07 04:48:37;;;;;;;;;;;;;;;28.29;22.48;100010.84;5074069;28;1973;-27
2023/03/07 04:51:03;;;;;;;;;;;;;;;28.82;21.07;100009.94;5074087;28;1122;-26
2023/03/07 04:53:29;;;;;;;;;;;;;;;28.84;20.23;100010.53;5066297;28;1039;-25
2023/03/07 04:56:02;;;;;;;;;;;;;;;28.52;20.19;100012.28;5076260;28;1046;-26
2023/03/07 04:58:29;;;;;;;;;;;;;;;28.02;20.45;100008.97;5063012;28;1098;-26
2023/03/07 05:00:55;;;;;;;;;;;;;;;27.97;20.31;100011.47;5074969;28;1111;-25
2023/03/07 05:03:21;;;;;;;;;;;;;;;28.42;19.92;100020.84;5066549;28;1003;-27
2023/03/07 05:05:47;;;;;;;;;;;;;;;28.72;19.05;100023.91;5063153;28;1116;-26
2023/03/07 05:08:12;;;;;;;;;;;;;;;28.41;18.53;100020.00;5072641;28;1914;-24
2023/03/07 05:10:38;;;;;;;;;;;;;;;28.38;18.28;100015.00;5074343;28;1368;-22
2023/03/07 05:13:04;;;;;;;;;;;;;;;28.24;17.73;100019.59;5075650;28;1061;-22
2023/03/07 05:15:30;;;;;;;;;;;;;;;28.15;17.99;100018.09;5074402;28;1005;-21
2023/03/07 05:17:55;;;;;;;;;;;;;;;28.94;17.02;100028.22;5062516;28;1265;-25
2023/03/07 05:20:22;;;;;;;;;;;;;;;29.20;16.76;100026.50;5074460;28;1168;-23
2023/03/07 05:22:48;;;;;;;;;;;;;;;29.52;16.56;100025.72;5055531;28;1243;-23
2023/03/07 05:25:14;;;;;;;;;;;;;;;29.53;16.88;100030.09;5056122;28;1035;-23
2023/03/07 05:27:40;;;;;;;;;;;;;;;29.90;16.52;100035.72;5061712;28;1898;-23
2023/03/07 05:30:07;;;;;;;;;;;;;;;30.24;16.59;100034.66;5076258;28;1047;-24
2023/03/07 05:32:32;;;;;;;;;;;;;;;30.35;16.61;100041.22;5056393;28;1086;-24
2023/03/07 05:34:58;;;;;;;;;;;;;;;30.33;16.76;100036.03;5068028;28;1147;-25
2023/03/07 05:37:24;;;;;;;;;;;;;;;29.78;16.87;100043.72;5054497;28;1209;-24
2023/03/07 05:39:50;;;;;;;;;;;;;;;26.73;20.53;100040.88;5067888;28;1435;-22
2023/03/07 05:42:16;;;;;;;;;;;;;;;28.71;18.80;100053.91;5063044;28;1158;-23
2023/03/07 05:44:42;;;;;;;;;;;;;;;29.81;17.59;100050.59;5061072;28;1228;-24
2023/03/07 05:47:08;;;;;;;;;;;;;;;29.92;17.19;100052.59;5068597;28;1910;-25
2023/03/07 05:49:34;;;;;;;;;;;;;;;29.96;17.35;100063.00;5058524;28;1315;-24
2023/03/07 05:52:00;;;;;;;;;;;;;;;29.52;17.93;100061.78;5068089;28;1198;-23
2023/03/07 05:54:25;;;;;;;;;;;;;;;28.33;18.34;100050.81;5078447;28;1231;-22
2023/03/07 05:56:51;;;;;;;;;;;;;;;26.97;20.98;100056.78;5074298;28;1083;-19
2023/03/07 05:59:17;;;;;;;;;;;;;;;28.07;19.37;100054.31;5071849;28;1320;-19
2023/03/07 06:01:46;;;;;;;;;;;;;;;28.72;18.66;100061.81;5071949;28;1305;-19
2023/03/07 06:04:11;;;;;;;;;;;;;;;28.71;18.96;100060.13;5073230;28;1069;-19
2023/03/07 06:06:37;;;;;;;;;;;;;;;28.82;18.72;100058.66;5070297;28;1050;-19
2023/03/07 06:09:04;;;;;;;;;;;;;;;28.64;18.89;100070.16;5075393;28;1898;-19
2023/03/07 06:11:31;;;;;;;;;;;;;;;28.56;19.29;100060.34;5073808;28;965;-19
2023/03/07 06:13:56;;;;;;;;;;;;;;;28.48;19.34;100060.56;5079207;28;1043;-19
2023/03/07 06:16:22;;;;;;;;;;;;;;;28.53;19.91;100059.97;5078113;28;1344;-19
2023/03/07 06:18:48;;;;;;;;;;;;;;;29.00;19.39;100069.88;5067426;28;1333;-19
2023/03/07 06:21:14;;;;;;;;;;;;;;;29.08;19.32;100067.78;5065982;28;1332;-19
2023/03/07 06:23:43;;;;;;;;;;;;;;;29.30;19.39;100058.53;5075359;28;1082;-19
2023/03/07 06:26:11;;;;;;;;;;;;;;;29.49;19.08;100073.06;5069365;28;1109;-19
2023/03/07 06:28:39;;;;;;;;;;;;;;;28.52;19.92;100066.41;5058968;28;1910;-19
2023/03/07 06:31:13;;;;;;;;;;;;;;;28.47;20.22;100076.00;5075978;28;1003;-19
2023/03/07 06:33:38;;;;;;;;;;;;;;;29.41;19.16;100078.72;5077462;28;1073;-19
2023/03/07 06:36:05;;;;;;;;;;;;;;;28.91;19.83;100080.09;5077404;28;1217;-20
2023/03/07 06:38:31;;;;;;;;;;;;;;;28.58;20.29;100088.03;5075879;28;1284;-19
2023/03/07 06:40:57;;;;;;;;;;;;;;;28.54;20.41;100086.81;5077766;28;1154;-19
2023/03/07 06:43:23;;;;;;;;;;;;;;;28.73;20.09;100087.81;5077536;28;1137;-18
2023/03/07 06:45:48;;;;;;;;;;;;;;;28.57;20.41;100074.72;5079770;28;1101;-18
2023/03/07 06:48:14;;;;;;;;;;;;;;;28.40;20.92;100077.84;5080598;28;1897;-18
2023/03/07 06:50:40;;;;;;;;;;;;;;;27.83;21.28;100080.88;5098823;28;1027;-18
2023/03/07 06:53:06;;;;;;;;;;;;;;;28.19;20.89;100084.28;5079926;28;1231;-18
2023/03/07 06:55:31;;;;;;;;;;;;;;;29.00;20.07;100080.72;5098410;28;1161;-19
2023/03/07 06:57:57;;;;;;;;;;;;;;;28.70;20.45;100074.72;5079485;28;1976;-19
2023/03/07 07:00:22;;;;;;;;;;;;;;;28.93;20.32;100086.09;5098362;28;1050;-19
2023/03/07 07:02:48;;;;;;;;;;;;;;;28.64;20.75;100083.69;5079566;28;1288;-18
2023/03/07 07:05:14;;;;;;;;;;;;;;;28.54;20.82;100083.25;5098211;28;1328;-19
2023/03/07 07:07:40;;;;;;;;;;;;;;;28.40;21.12;100088.66;5080305;28;1898;-18
2023/03/07 07:10:06;;;;;;;;;;;;;;;28.33;21.14;100091.38;5080064;28;1240;-19
2023/03/07 07:12:32;;;;;;;;;;;;;;;28.00;21.59;100084.03;5080323;28;1141;-18
2023/03/07 07:15:01;;;;;;;;;;;;;;;28.42;20.95;100081.19;5080041;28;1210;-18
2023/03/07 07:17:27;;;;;;;;;;;;;;;28.88;20.52;100083.22;5080285;28;1264;-18
2023/03/07 07:19:53;;;;;;;;;;;;;;;28.64;20.90;100083.69;5079980;28;1929;-18
2023/03/07 07:22:19;;;;;;;;;;;;;;;28.18;21.65;100083.44;5098082;28;1034;-18
2023/03/07 07:24:44;;;;;;;;;;;;;;;28.52;21.31;100085.34;5097116;28;990;-18
2023/03/07 07:27:10;;;;;;;;;;;;;;;28.50;21.10;100087.41;5080107;28;1902;-19
2023/03/07 07:29:36;;;;;;;;;;;;;;;28.39;21.21;100086.19;5079459;28;1170;-18
2023/03/07 07:32:01;;;;;;;;;;;;;;;28.19;21.71;100082.41;5080069;28;1170;-19
2023/03/07 07:34:27;;;;;;;;;;;;;;;27.99;21.94;100077.78;5079257;28;1147;-18
2023/03/07 07:36:53;;;;;;;;;;;;;;;28.75;20.96;100075.94;5098038;28;1098;-18
2023/03/07 07:39:20;;;;;;;;;;;;;;;28.66;20.92;100080.75;5097949;28;1051;-18
2023/03/07 07:41:46;;;;;;;;;;;;;;;28.66;20.79;100078.06;5098036;28;1130;-19
2023/03/07 07:44:13;;;;;;;;;;;;;;;28.42;21.26;100075.78;5079223;28;1299;-18
2023/03/07 07:47:00;;;;;;;;;;;;;;;28.27;21.25;100072.41;5068278;28;1281;-18
2023/03/07 07:49:26;;;;;;;;;;;;;;;28.56;21.09;100071.19;5079263;28;1914;-18
2023/03/07 07:51:52;;;;;;;;;;;;;;;28.56;21.10;100071.19;5078451;28;1328;-18
2023/03/07 07:54:17;;;;;;;;;;;;;;;28.47;21.09;100072.44;5078928;28;1352;-18
2023/03/07 07:56:45;;;;;;;;;;;;;;;28.44;21.50;100075.56;5069127;28;1098;-18
2023/03/07 07:59:11;;;;;;;;;;;;;;;28.41;21.30;100070.56;5075188;28;1415;-18
2023/03/07 08:01:37;;;;;;;;;;;;;;;28.32;21.55;100069.91;5079380;28;1129;-18
2023/03/07 08:04:03;;;;;;;;;;;;;;;28.20;21.55;100067.00;5096515;28;1065;-18
2023/03/07 08:06:29;;;;;;;;;;;;;;;28.23;21.91;100074.69;5079130;28;1280;-18
2023/03/07 08:08:55;;;;;;;;;;;;;;;28.18;22.05;100072.63;5096674;28;1918;-18
2023/03/07 08:11:20;;;;;;;;;;;;;;;28.19;21.93;100071.59;5096451;28;1073;-18
2023/03/07 08:13:46;;;;;;;;;;;;;;;28.19;21.96;100065.34;5097301;28;1054;-18
2023/03/07 08:16:13;;;;;;;;;;;;;;;28.27;21.99;100062.44;5096517;28;1327;-18
2023/03/07 08:18:39;;;;;;;;;;;;;;;28.30;21.90;100062.00;5097140;28;1311;-18
2023/03/07 08:21:05;;;;;;;;;;;;;;;28.10;21.85;100049.31;5097683;28;1141;-18
2023/03/07 08:23:30;;;;;;;;;;;;;;;28.14;22.14;100062.41;5096306;28;1003;-18
2023/03/07 08:26:00;;;;;;;;;;;;;;;28.06;22.02;100058.88;5078671;28;1074;-18
2023/03/07 08:28:26;;;;;;;;;;;;;;;28.11;21.89;100056.38;5096591;28;1989;-18
2023/03/07 08:30:51;;;;;;;;;;;;;;;28.12;21.94;100049.09;5096363;28;1019;-18
2023/03/07 08:33:17;;;;;;;;;;;;;;;28.23;21.71;100048.50;5096306;28;1378;-18
2023/03/07 08:35:43;;;;;;;;;;;;;;;28.07;22.08;100046.19;5094994;28;1264;-19
2023/03/07 08:38:08;;;;;;;;;;;;;;;27.96;22.27;100047.66;5096770;28;1339;-22
2023/03/07 08:40:34;;;;;;;;;;;;;;;27.98;22.32;100045.53;5096797;28;1100;-21
2023/03/07 08:42:59;;;;;;;;;;;;;;;27.97;22.33;100042.03;5096425;28;1299;-21
2023/03/07 08:45:25;;;;;;;;;;;;;;;28.04;22.23;100046.59;5096937;28;1121;-22
2023/03/07 08:47:52;;;;;;;;;;;;;;;28.05;21.92;100040.16;5095365;28;1909;-23
2023/03/07 08:50:18;;;;;;;;;;;;;;;28.01;22.31;100042.44;5096803;28;1331;-22
2023/03/07 08:52:44;;;;;;;;;;;;;;;27.99;22.33;100033.72;5096303;28;1320;-23
2023/03/07 08:55:09;;;;;;;;;;;;;;;28.00;22.46;100038.06;5077863;28;2156;-22
2023/03/07 08:57:35;;;;;;;;;;;;;;;27.99;22.04;100036.41;5096161;28;1363;-23
2023/03/07 09:00:00;;;;;;;;;;;;;;;28.19;22.23;100033.72;5094966;28;1379;-23
2023/03/07 09:02:26;;;;;;;;;;;;;;;27.97;22.34;100036.63;5096424;28;1145;-23
2023/03/07 09:04:52;;;;;;;;;;;;;;;28.05;22.04;100027.47;5095568;28;1181;-25
2023/03/07 09:07:18;;;;;;;;;;;;;;;28.13;22.05;100021.03;5096109;28;1914;-23
2023/03/07 09:09:43;;;;;;;;;;;;;;;28.20;22.05;100027.28;5096460;28;1196;-24
2023/03/07 09:12:09;;;;;;;;;;;;;;;28.18;21.90;100031.22;5095095;28;1257;-24
2023/03/07 09:14:35;;;;;;;;;;;;;;;28.23;21.71;100026.84;5095794;28;1118;-24
2023/03/07 09:17:00;;;;;;;;;;;;;;;28.26;21.89;100012.06;5096504;28;1043;-23
2023/03/07 09:19:26;;;;;;;;;;;;;;;28.40;21.82;100015.63;5096259;28;1047;-23
2023/03/07 09:21:52;;;;;;;;;;;;;;;28.30;22.05;100007.06;5081444;28;1105;-23
2023/03/07 09:24:17;;;;;;;;;;;;;;;28.32;21.79;100010.41;5099870;28;876;-23
2023/03/07 09:26:43;;;;;;;;;;;;;;;28.40;21.73;100010.22;5099978;28;1061;-23
2023/03/07 09:29:09;;;;;;;;;;;;;;;28.38;21.78;100014.19;5100455;28;1914;-23
2023/03/07 09:31:35;;;;;;;;;;;;;;;28.38;21.72;100012.31;5100489;28;1138;-23
2023/03/07 09:34:00;;;;;;;;;;;;;;;28.20;21.69;100008.34;5100292;28;1058;-23
2023/03/07 09:36:26;;;;;;;;;;;;;;;28.20;21.88;100010.22;5099921;28;1178;-23
2023/03/07 09:38:52;;;;;;;;;;;;;;;28.15;21.70;100007.28;5100097;28;1129;-23
2023/03/07 09:41:32;;;;;;;;;;;;;;;28.04;21.92;100003.34;5100228;28;1041;-23
2023/03/07 09:44:21;;;;;;;;;;;;;;;28.02;21.83;100010.81;5099988;28;1098;-22
2023/03/07 09:47:19;;;;;;;;;;;;;;;28.22;21.95;100005.44;5086905;28;1120;-23
2023/03/07 09:49:48;;;;;;;;;;;;;;;28.34;22.00;99997.56;5100004;28;1015;-23
2023/03/07 09:52:16;;;;;;;;;;;;;;;28.42;21.68;99999.19;5100128;28;1034;-23
2023/03/07 09:54:45;;;;;;;;;;;;;;;28.40;21.90;99994.00;5081899;28;1090;-23
2023/03/07 09:57:13;;;;;;;;;;;;;;;28.51;21.79;99992.50;5081353;28;1044;-23
2023/03/07 09:59:40;;;;;;;;;;;;;;;28.47;22.13;99991.28;5081419;28;1114;-23
2023/03/07 10:02:38;;;;;;;;;;;;;;;28.14;21.74;99984.84;5081006;28;1229;-23
2023/03/07 10:05:22;;;;;;;;;;;;;;;27.67;22.11;99974.81;5032005;28;1286;-22
2023/03/07 10:07:48;;;;;;;;;;;;;;;27.77;22.50;99969.03;5099103;28;1967;-23
2023/03/07 10:10:16;;;;;;;;;;;;;;;28.11;22.03;99974.47;5099652;28;1114;-23
2023/03/07 10:12:51;;;;;;;;;;;;;;;28.35;22.13;99978.41;5080931;28;1059;-23
2023/03/07 10:15:27;;;;;;;;;;;;;;;28.40;21.99;99968.81;5099339;28;1054;-23
2023/03/07 10:17:58;;;;;;;;;;;;;;;28.54;21.74;99967.75;5067980;28;953;-23
2023/03/07 10:20:31;;;;;;;;;;;;;;;28.60;21.94;99963.38;5080305;28;1138;-23
2023/03/07 10:23:16;;;;;;;;;;;;;;;28.66;21.68;99961.69;5080938;28;1328;-23
2023/03/07 10:25:52;;;;;;;;;;;;;;;28.72;21.82;99956.25;5071788;28;1207;-23
2023/03/07 10:28:30;;;;;;;;;;;;;;;28.88;21.37;99962.22;5098336;28;1976;-23
2023/03/07 10:30:57;;;;;;;;;;;;;;;28.91;21.31;99947.44;5099155;28;1323;-23
2023/03/07 10:33:23;;;;;;;;;;;;;;;28.99;21.41;99949.94;5098072;28;1007;-23
2023/03/07 10:36:07;;;;;;;;;;;;;;;29.00;21.66;99943.47;5098862;28;1054;-23
2023/03/07 10:38:42;;;;;;;;;;;;;;;29.20;21.07;99942.53;5099231;28;1141;-23
2023/03/07 10:41:15;;;;;;;;;;;;;;;29.26;21.07;99932.72;5080446;28;1197;-23
2023/03/07 10:43:40;;;;;;;;;;;;;;;29.26;21.33;99932.72;5095693;28;1233;-23
2023/03/07 10:46:16;;;;;;;;;;;;;;;29.06;21.45;99936.38;5080697;28;1296;-23
2023/03/07 10:48:43;;;;;;;;;;;;;;;28.89;21.88;99930.59;5078480;28;1898;-23
2023/03/07 10:51:24;;;;;;;;;;;;;;;28.91;21.82;99929.31;5079677;28;1042;-23
2023/03/07 10:53:49;;;;;;;;;;;;;;;28.96;21.44;99920.56;5088331;28;1018;-23
2023/03/07 10:56:16;;;;;;;;;;;;;;;29.19;21.58;99922.75;5080865;28;1087;-25
2023/03/07 10:59:01;;;;;;;;;;;;;;;29.41;21.26;99918.88;5098589;28;1090;-23
2023/03/07 11:01:27;;;;;;;;;;;;;;;29.45;21.13;99915.50;5098527;28;1041;-24
2023/03/07 11:03:59;;;;;;;;;;;;;;;29.61;20.98;99915.22;5098536;28;1070;-23
2023/03/07 11:06:32;;;;;;;;;;;;;;;29.63;20.87;99910.41;5098414;28;1497;-24
2023/03/07 11:09:14;;;;;;;;;;;;;;;29.72;20.87;99911.78;5098637;28;1972;-24
2023/03/07 11:11:39;;;;;;;;;;;;;;;29.85;20.76;99908.13;5085140;28;1118;-24
2023/03/07 11:14:14;;;;;;;;;;;;;;;29.88;20.53;99907.69;5079849;28;1087;-24
2023/03/07 11:16:40;;;;;;;;;;;;;;;29.69;20.98;99906.81;5098316;28;1122;-23
2023/03/07 11:19:26;;;;;;;;;;;;;;;29.82;21.04;99909.41;5097908;28;1272;-24
2023/03/07 11:21:52;;;;;;;;;;;;;;;29.67;20.83;99900.78;5089114;28;1321;-24
2023/03/07 11:24:24;;;;;;;;;;;;;;;29.42;21.15;99894.28;5097911;28;1344;-24
2023/03/07 11:26:52;;;;;;;;;;;;;;;29.14;21.71;99892.78;5098524;28;1050;-24
2023/03/07 11:29:18;;;;;;;;;;;;;;;28.95;22.15;99889.09;5098063;28;1913;-23
2023/03/07 11:32:01;;;;;;;;;;;;;;;28.96;21.92;99886.19;5097487;28;1138;-24
2023/03/07 11:34:39;;;;;;;;;;;;;;;29.25;21.48;99876.88;5080055;28;1099;-23
2023/03/07 11:37:17;;;;;;;;;;;;;;;29.60;21.07;99881.84;5096509;28;1033;-23
2023/03/07 11:39:54;;;;;;;;;;;;;;;29.51;21.17;99875.03;5097388;28;1379;-24
2023/03/07 11:42:21;;;;;;;;;;;;;;;29.49;21.38;99869.84;5095611;28;1238;-24
2023/03/07 11:44:47;;;;;;;;;;;;;;;29.85;20.88;99870.16;5076902;28;1429;-26
2023/03/07 11:47:14;;;;;;;;;;;;;;;30.00;20.41;99875.25;5097282;28;1695;-24
2023/03/07 11:49:58;;;;;;;;;;;;;;;30.09;20.49;99872.22;5096558;28;1253;-26
2023/03/07 11:52:32;;;;;;;;;;;;;;;30.01;20.45;99862.53;5097619;28;1232;-24
2023/03/07 11:54:58;;;;;;;;;;;;;;;29.96;20.14;99859.66;5097449;28;1109;-25
2023/03/07 11:57:33;;;;;;;;;;;;;;;29.96;20.40;99860.50;5097164;28;1391;-24
2023/03/07 12:00:02;;;;;;;;;;;;;;;30.01;20.41;99859.81;5073395;28;1265;-24
2023/03/07 12:02:36;;;;;;;;;;;;;;;30.04;20.27;99857.47;5077880;28;1238;-26
2023/03/07 12:05:09;;;;;;;;;;;;;;;30.16;20.08;99854.03;5079310;28;1261;-24
2023/03/07 12:07:34;;;;;;;;;;;;;;;30.16;20.29;99854.81;5096879;28;1918;-25
2023/03/07 12:10:03;;;;;;;;;;;;;;;30.18;20.21;99846.47;5096898;28;1403;-25
2023/03/07 12:12:34;;;;;;;;;;;;;;;30.18;20.26;99846.47;5096357;28;1311;-26
2023/03/07 12:15:18;;;;;;;;;;;;;;;29.85;20.61;99840.34;5097094;28;1240;-25
2023/03/07 12:17:55;;;;;;;;;;;;;;;29.86;20.60;99841.19;5096910;28;1283;-24
2023/03/07 12:20:24;;;;;;;;;;;;;;;30.12;20.22;99842.78;5096537;28;1347;-24
2023/03/07 12:22:54;;;;;;;;;;;;;;;30.16;20.17;99841.25;5096761;28;1367;-24
2023/03/07 12:25:19;;;;;;;;;;;;;;;30.29;20.20;99839.50;5075985;28;1341;-25
2023/03/07 12:27:51;;;;;;;;;;;;;;;30.19;20.18;99843.56;5096463;28;1917;-25
2023/03/07 12:30:22;;;;;;;;;;;;;;;30.10;20.42;99842.19;5096396;28;1367;-24
2023/03/07 12:32:47;;;;;;;;;;;;;;;30.36;20.08;99847.56;5096801;28;1382;-24
2023/03/07 12:35:23;;;;;;;;;;;;;;;30.32;20.06;99844.47;5078230;28;1182;-25
2023/03/07 12:37:49;;;;;;;;;;;;;;;30.16;20.48;99843.97;5096287;28;1347;-26
2023/03/07 12:40:22;;;;;;;;;;;;;;;30.26;20.02;99840.75;5096801;28;1262;-24
2023/03/07 12:42:48;;;;;;;;;;;;;;;29.58;20.05;99840.56;5078121;28;1315;-25
2023/03/07 12:45:18;;;;;;;;;;;;;;;29.08;20.11;99832.19;5091396;28;1568;-26
2023/03/07 12:47:58;;;;;;;;;;;;;;;28.43;21.02;99819.59;5077144;28;1910;-25
2023/03/07 12:50:42;;;;;;;;;;;;;;;28.11;21.42;99829.25;5073561;28;1446;-26
2023/03/07 12:53:15;;;;;;;;;;;;;;;28.56;20.63;99827.66;5086031;28;1003;-25
2023/03/07 12:55:44;;;;;;;;;;;;;;;28.82;19.52;99823.19;5091771;28;1300;-26